createdAt,value
2022-10-08T00:01:15.219Z,27.25
2022-10-08T00:03:48.034Z,32.97
2022-10-08T00:06:20.145Z,32.75
2022-10-08T00:08:55.611Z,37.13
2022-10-08T00:11:25.462Z,39.20
2022-10-08T00:13:53.349Z,39.35
2022-10-08T00:16:25.614Z,41.20
2022-10-08T00:18:55.684Z,34.10
2022-10-08T00:21:32.444Z,26.58
2022-10-08T00:24:01.554Z,29.90
2022-10-08T00:26:31.247Z,27.85
2022-10-08T00:29:01.694Z,32.88
2022-10-08T00:31:34.345Z,31.02
2022-10-08T00:34:05.879Z,31.08
2022-10-08T00:36:34.961Z,36.78
2022-10-08T00:39:05.601Z,34.90
2022-10-08T00:41:34.693Z,34.17
2022-10-08T00:44:05.678Z,35.15
2022-10-08T00:46:48.772Z,38.57
2022-10-08T00:49:20.172Z,35.45
2022-10-08T00:51:56.517Z,35.33
2022-10-08T00:54:23.831Z,30.92
2022-10-08T00:56:54.364Z,36.55
2022-10-08T00:59:21.617Z,34.63
2022-10-08T01:01:48.501Z,38.70
2022-10-08T01:04:16.120Z,36.83
2022-10-08T01:06:45.653Z,42.10
2022-10-08T01:09:19.404Z,38.50
2022-10-08T01:12:06.123Z,39.20
2022-10-08T01:14:45.300Z,48.72
2022-10-08T01:17:12.138Z,40.67
2022-10-08T01:20:10.933Z,43.38
2022-10-08T01:23:02.491Z,37.53
2022-10-08T01:25:53.351Z,41.47
2022-10-08T01:28:23.159Z,42.72
2022-10-08T01:31:19.159Z,46.00
2022-10-08T01:33:52.936Z,36.47
2022-10-08T01:36:21.615Z,44.92
2022-10-08T01:38:56.172Z,44.83
2022-10-08T01:41:26.193Z,42.35
2022-10-08T01:44:10.623Z,40.95
2022-10-08T01:46:41.123Z,38.20
2022-10-08T01:49:13.204Z,43.47
2022-10-08T01:51:47.189Z,45.47
2022-10-08T01:54:16.560Z,36.42
2022-10-08T01:56:46.166Z,44.85
2022-10-08T01:59:23.124Z,44.63
2022-10-08T02:01:58.795Z,37.22
2022-10-08T02:04:34.885Z,36.67
2022-10-08T02:07:18.307Z,37.00
2022-10-08T02:10:12.387Z,40.92
2022-10-08T02:12:40.564Z,42.53
2022-10-08T02:15:25.768Z,39.40
2022-10-08T02:18:14.905Z,42.03
2022-10-08T02:20:41.680Z,44.30
2022-10-08T02:23:17.441Z,41.85
2022-10-08T02:25:53.935Z,35.95
2022-10-08T02:28:32.068Z,46.25
2022-10-08T02:31:36.491Z,44.00
2022-10-08T02:34:14.456Z,44.85
2022-10-08T02:36:47.022Z,42.83
2022-10-08T02:39:16.652Z,37.88
2022-10-08T02:41:53.174Z,35.75
2022-10-08T02:44:48.131Z,42.13
2022-10-08T02:47:19.795Z,42.75
2022-10-08T02:49:54.864Z,108.38
2022-10-08T02:52:24.745Z,103.70
2022-10-08T02:54:53.199Z,39.92
2022-10-08T02:57:27.699Z,49.83
2022-10-08T02:59:55.296Z,43.63
2022-10-08T03:02:37.922Z,37.60
2022-10-08T03:05:08.889Z,39.20
2022-10-08T03:07:35.734Z,42.07
2022-10-08T03:10:07.542Z,33.70
2022-10-08T03:15:01.758Z,43.70
2022-10-08T03:17:34.683Z,38.72
2022-10-08T03:20:03.266Z,45.50
2022-10-08T03:22:31.720Z,43.83
2022-10-08T03:24:58.811Z,49.67
2022-10-08T03:27:25.659Z,66.03
2022-10-08T03:29:57.135Z,50.45
2022-10-08T03:32:25.134Z,39.63
2022-10-08T03:34:52.335Z,45.58
2022-10-08T03:37:20.060Z,88.20
2022-10-08T03:39:47.031Z,122.03
2022-10-08T03:42:14.001Z,53.33
2022-10-08T03:44:40.748Z,59.50
2022-10-08T03:47:07.514Z,55.13
2022-10-08T03:49:34.293Z,45.92
2022-10-08T03:52:01.365Z,47.22
2022-10-08T03:54:28.818Z,48.10
2022-10-08T03:56:55.562Z,42.58
2022-10-08T03:59:22.471Z,43.78
2022-10-08T04:01:49.391Z,40.05
2022-10-08T04:04:16.266Z,47.38
2022-10-08T04:06:43.034Z,47.35
2022-10-08T04:09:10.827Z,46.15
2022-10-08T04:11:37.699Z,51.67
2022-10-08T04:14:04.692Z,46.25
2022-10-08T04:16:31.436Z,44.25
2022-10-08T04:18:58.220Z,46.08
2022-10-08T04:21:25.054Z,42.03
2022-10-08T04:23:52.122Z,45.58
2022-10-08T04:26:19.136Z,41.67
2022-10-08T04:28:46.324Z,44.67
2022-10-08T04:31:22.043Z,44.03
2022-10-08T04:33:49.337Z,43.75
2022-10-08T04:36:18.721Z,45.78
2022-10-08T04:38:46.269Z,38.85
2022-10-08T04:41:16.623Z,44.03
2022-10-08T04:43:44.762Z,37.40
2022-10-08T04:46:14.562Z,36.20
2022-10-08T04:48:47.841Z,39.53
2022-10-08T04:51:15.566Z,42.20
2022-10-08T04:53:43.029Z,39.50
2022-10-08T04:56:14.910Z,35.80
2022-10-08T05:01:11.365Z,42.97
2022-10-08T05:03:40.350Z,40.95
2022-10-08T05:06:07.897Z,42.53
2022-10-08T05:08:35.515Z,44.40
2022-10-08T05:11:02.700Z,39.47
2022-10-08T05:13:29.728Z,40.67
2022-10-08T05:15:56.644Z,40.08
2022-10-08T05:18:23.457Z,38.97
2022-10-08T05:20:50.279Z,94.93
2022-10-08T05:23:17.162Z,53.65
2022-10-08T05:25:44.073Z,43.72
2022-10-08T05:28:10.873Z,38.10
2022-10-08T05:30:37.793Z,38.45
2022-10-08T05:33:04.752Z,39.03
2022-10-08T05:35:31.521Z,38.22
2022-10-08T05:37:58.312Z,40.75
2022-10-08T05:40:25.179Z,38.13
2022-10-08T05:42:52.810Z,44.05
2022-10-08T05:45:19.659Z,46.78
2022-10-08T05:47:48.472Z,38.45
2022-10-08T05:50:16.040Z,39.90
2022-10-08T05:52:47.556Z,40.90
2022-10-08T05:55:14.663Z,37.15
2022-10-08T05:57:41.533Z,34.38
2022-10-08T06:00:08.980Z,43.20
2022-10-08T06:02:35.863Z,40.55
2022-10-08T06:05:02.753Z,42.83
2022-10-08T06:07:29.590Z,45.33
2022-10-08T06:09:56.368Z,43.60
2022-10-08T06:12:23.174Z,56.60
2022-10-08T06:14:49.948Z,51.33
2022-10-08T06:17:16.716Z,55.17
2022-10-08T06:19:43.467Z,57.38
2022-10-08T06:22:10.236Z,70.95
2022-10-08T06:24:36.995Z,66.88
2022-10-08T06:27:03.761Z,58.28
2022-10-08T06:29:30.579Z,60.65
2022-10-08T06:31:57.415Z,57.13
2022-10-08T06:34:24.498Z,58.47
2022-10-08T06:36:51.385Z,58.15
2022-10-08T06:39:18.530Z,49.67
2022-10-08T06:41:45.499Z,51.47
2022-10-08T06:44:14.153Z,44.47
2022-10-08T06:46:41.853Z,42.53
2022-10-08T06:49:11.008Z,51.38
2022-10-08T06:51:38.020Z,44.78
2022-10-08T06:54:07.750Z,41.45
2022-10-08T06:56:36.614Z,58.22
2022-10-08T06:59:04.951Z,54.47
2022-10-08T07:01:33.892Z,88.05
2022-10-08T07:04:01.907Z,92.95
2022-10-08T07:06:29.010Z,52.58
2022-10-08T07:09:00.601Z,50.70
2022-10-08T07:11:28.936Z,44.83
2022-10-08T07:13:59.795Z,47.17
2022-10-08T07:16:28.540Z,49.13
2022-10-08T07:19:19.604Z,50.22
2022-10-08T07:21:46.392Z,50.20
2022-10-08T07:24:13.174Z,53.10
2022-10-08T07:26:40.020Z,50.08
2022-10-08T07:29:11.976Z,47.15
2022-10-08T07:31:39.827Z,47.53
2022-10-08T07:34:10.542Z,45.60
2022-10-08T07:36:38.394Z,47.13
2022-10-08T07:39:08.550Z,46.75
2022-10-08T07:41:35.742Z,43.72
2022-10-08T07:44:03.694Z,48.65
2022-10-08T07:46:35.391Z,42.65
2022-10-08T07:49:03.815Z,44.33
2022-10-08T07:51:33.295Z,43.55
2022-10-08T07:54:02.847Z,43.47
2022-10-08T07:56:30.726Z,48.47
2022-10-08T07:58:59.082Z,49.40
2022-10-08T08:01:28.617Z,39.25
2022-10-08T08:04:02.433Z,38.05
2022-10-08T08:06:30.696Z,38.88
2022-10-08T08:08:59.226Z,38.70
2022-10-08T08:11:26.136Z,39.78
2022-10-08T08:13:53.756Z,38.63
2022-10-08T08:16:25.984Z,36.97
2022-10-08T08:18:56.347Z,38.85
2022-10-08T08:21:31.773Z,31.38
2022-10-08T08:24:02.573Z,30.73
2022-10-08T08:26:32.972Z,30.88
2022-10-08T08:29:02.728Z,29.85
2022-10-08T08:31:31.995Z,27.10
2022-10-08T08:34:05.574Z,24.17
2022-10-08T08:36:35.184Z,28.27
2022-10-08T08:39:02.424Z,23.25
2022-10-08T08:41:46.566Z,23.80
2022-10-08T08:44:23.711Z,23.60
2022-10-08T08:47:05.174Z,19.90
2022-10-08T08:49:45.429Z,22.58
2022-10-08T08:52:38.681Z,22.58
2022-10-08T08:55:15.876Z,23.17
2022-10-08T08:58:16.779Z,23.92
2022-10-08T09:00:47.430Z,21.48
2022-10-08T09:03:20.192Z,21.35
2022-10-08T09:05:51.126Z,21.33
2022-10-08T09:08:23.511Z,21.07
2022-10-08T09:10:57.435Z,20.02
2022-10-08T09:13:57.582Z,19.80
2022-10-08T09:16:27.948Z,26.40
2022-10-08T09:18:54.830Z,21.10
2022-10-08T09:21:23.482Z,19.30
2022-10-08T09:23:50.236Z,16.73
2022-10-08T09:26:23.900Z,20.65
2022-10-08T09:28:53.729Z,22.55
2022-10-08T09:31:38.563Z,17.77
2022-10-08T09:34:13.164Z,20.02
2022-10-08T09:36:52.508Z,16.00
2022-10-08T09:39:27.498Z,20.38
2022-10-08T09:42:14.076Z,19.45
2022-10-08T09:44:43.825Z,12.65
2022-10-08T09:47:22.886Z,16.50
2022-10-08T09:50:19.054Z,20.00
2022-10-08T09:52:48.400Z,21.55
2022-10-08T09:55:31.960Z,19.95
2022-10-08T09:58:00.596Z,17.17
2022-10-08T10:00:32.983Z,18.10
2022-10-08T10:03:01.500Z,18.48
2022-10-08T10:05:34.877Z,16.23
2022-10-08T10:08:02.345Z,19.80
2022-10-08T10:10:48.677Z,19.02
2022-10-08T10:13:23.634Z,15.82
2022-10-08T10:15:53.295Z,15.15
2022-10-08T10:18:25.956Z,16.98
2022-10-08T10:21:01.495Z,14.20
2022-10-08T10:23:35.664Z,14.68
2022-10-08T10:26:06.722Z,13.73
2022-10-08T10:28:44.926Z,16.25
2022-10-08T10:31:33.184Z,17.40
2022-10-08T10:34:02.815Z,15.43
2022-10-08T10:36:38.639Z,16.45
2022-10-08T10:39:41.306Z,20.63
2022-10-08T10:42:29.349Z,16.17
2022-10-08T10:45:02.916Z,18.23
2022-10-08T10:47:32.444Z,19.95
2022-10-08T10:50:01.919Z,12.90
2022-10-08T10:52:40.687Z,14.90
2022-10-08T10:55:29.555Z,16.08
2022-10-08T10:58:20.717Z,12.73
2022-10-08T11:00:57.992Z,12.10
2022-10-08T11:03:34.836Z,18.42
2022-10-08T11:06:23.508Z,17.40
2022-10-08T11:09:03.396Z,17.40
2022-10-08T11:12:23.036Z,14.07
2022-10-08T11:15:20.792Z,16.83
2022-10-08T11:18:03.045Z,11.02
2022-10-08T11:20:53.411Z,10.98
2022-10-08T11:23:42.214Z,12.20
2022-10-08T11:26:27.867Z,9.57
2022-10-08T11:29:07.062Z,18.98
2022-10-08T11:31:45.362Z,14.45
2022-10-08T11:34:35.722Z,11.95
2022-10-08T11:37:28.440Z,13.80
2022-10-08T11:40:01.288Z,11.20
2022-10-08T11:42:48.302Z,8.50
2022-10-08T11:45:25.843Z,14.75
2022-10-08T11:47:54.767Z,16.23
2022-10-08T11:50:31.260Z,15.25
2022-10-08T11:53:15.655Z,12.50
2022-10-08T11:55:55.312Z,7.03
2022-10-08T11:58:28.576Z,7.72
2022-10-08T12:01:10.572Z,10.73
2022-10-08T12:03:40.835Z,8.68
2022-10-08T12:06:24.531Z,12.07
2022-10-08T12:08:58.256Z,10.90
2022-10-08T12:11:40.072Z,15.98
2022-10-08T12:16:49.092Z,9.90
2022-10-08T12:19:38.804Z,10.88
2022-10-08T12:22:14.463Z,11.52
2022-10-08T12:24:43.800Z,15.93
2022-10-08T12:27:48.732Z,14.32
2022-10-08T12:30:19.219Z,12.30
2022-10-08T12:32:46.794Z,14.32
2022-10-08T12:35:25.942Z,18.85
2022-10-08T12:38:08.036Z,9.25
2022-10-08T12:40:48.314Z,9.57
2022-10-08T12:43:38.864Z,18.25
2022-10-08T12:46:24.294Z,15.75
2022-10-08T12:48:58.265Z,16.90
2022-10-08T12:51:41.984Z,14.50
2022-10-08T12:54:20.929Z,12.40
2022-10-08T12:56:48.425Z,15.18
2022-10-08T12:59:17.289Z,13.95
2022-10-08T13:01:45.353Z,9.00
2022-10-08T13:04:22.511Z,8.70
2022-10-08T13:06:51.763Z,11.25
2022-10-08T13:09:29.817Z,8.90
2022-10-08T13:12:03.432Z,16.33
2022-10-08T13:14:40.568Z,18.08
2022-10-08T13:17:28.137Z,12.65
2022-10-08T13:20:10.706Z,11.70
2022-10-08T13:22:38.245Z,12.43
2022-10-08T13:25:06.219Z,13.07
2022-10-08T13:27:34.631Z,52.85
2022-10-08T13:30:28.774Z,13.48
2022-10-08T13:33:04.340Z,13.05
2022-10-08T13:35:33.631Z,15.18
2022-10-08T13:38:02.807Z,14.77
2022-10-08T13:40:30.207Z,11.65
2022-10-08T13:42:58.905Z,12.38
2022-10-08T13:45:38.554Z,14.93
2022-10-08T13:48:12.913Z,12.68
2022-10-08T13:50:50.976Z,13.32
2022-10-08T13:53:22.145Z,11.00
2022-10-08T13:55:50.313Z,15.93
2022-10-08T13:58:19.169Z,16.85
2022-10-08T14:00:47.715Z,12.75
2022-10-08T14:03:14.945Z,10.18
2022-10-08T14:05:47.018Z,10.90
2022-10-08T14:08:23.330Z,10.15
2022-10-08T14:10:53.169Z,16.42
2022-10-08T14:13:19.930Z,18.17
2022-10-08T14:15:46.673Z,12.98
2022-10-08T14:18:13.550Z,14.20
2022-10-08T14:20:40.654Z,10.65
2022-10-08T14:23:07.657Z,12.35
2022-10-08T14:25:34.419Z,18.77
2022-10-08T14:28:01.555Z,13.10
2022-10-08T14:30:28.912Z,16.83
2022-10-08T14:32:55.848Z,12.82
2022-10-08T14:35:22.740Z,16.25
2022-10-08T14:37:50.290Z,17.88
2022-10-08T14:40:20.321Z,13.50
2022-10-08T14:42:47.745Z,13.52
2022-10-08T14:45:14.806Z,18.02
2022-10-08T14:47:42.296Z,13.43
2022-10-08T14:50:09.963Z,14.02
2022-10-08T14:52:41.761Z,17.88
2022-10-08T14:55:11.076Z,13.30
2022-10-08T14:57:37.853Z,12.70
2022-10-08T15:00:05.504Z,23.77
2022-10-08T15:02:34.253Z,19.17
2022-10-08T15:05:01.735Z,16.63
2022-10-08T15:07:28.888Z,21.30
2022-10-08T15:09:55.665Z,21.88
2022-10-08T15:12:22.491Z,12.77
2022-10-08T15:14:49.360Z,173.25
2022-10-08T15:17:16.240Z,15.45
2022-10-08T15:19:43.061Z,16.95
2022-10-08T15:22:09.859Z,18.00
2022-10-08T15:24:36.647Z,16.42
2022-10-08T15:27:03.636Z,17.90
2022-10-08T15:29:30.609Z,15.30
2022-10-08T15:31:57.566Z,10.60
2022-10-08T15:34:24.520Z,19.70
2022-10-08T15:36:55.438Z,28.88
2022-10-08T15:39:22.927Z,15.30
2022-10-08T15:41:52.698Z,18.23
2022-10-08T15:44:31.035Z,18.98
2022-10-08T15:46:59.640Z,14.77
2022-10-08T15:49:31.239Z,19.08
2022-10-08T15:51:58.192Z,13.13
2022-10-08T15:54:25.020Z,13.13
2022-10-08T15:56:51.800Z,18.70
2022-10-08T15:59:18.758Z,17.90
2022-10-08T16:01:45.524Z,18.52
2022-10-08T16:04:13.781Z,18.00
2022-10-08T16:06:45.443Z,15.32
2022-10-08T16:11:39.736Z,12.27
2022-10-08T16:14:10.270Z,13.93
2022-10-08T16:16:38.455Z,19.77
2022-10-08T16:19:08.059Z,18.38
2022-10-08T16:21:35.428Z,13.40
2022-10-08T16:24:02.381Z,17.17
2022-10-08T16:26:31.856Z,15.13
2022-10-08T16:29:01.636Z,12.98
2022-10-08T16:31:30.618Z,14.52
2022-10-08T16:34:18.749Z,17.52
2022-10-08T16:36:48.785Z,14.93
2022-10-08T16:39:18.279Z,21.58
2022-10-08T16:41:52.487Z,17.80
2022-10-08T16:44:21.075Z,20.25
2022-10-08T16:46:51.015Z,19.02
2022-10-08T16:49:25.453Z,15.77
2022-10-08T16:51:55.092Z,21.02
2022-10-08T16:54:22.348Z,18.23
2022-10-08T16:56:49.512Z,21.60
2022-10-08T16:59:19.454Z,14.35
2022-10-08T17:01:48.928Z,17.50
2022-10-08T17:04:17.722Z,14.20
2022-10-08T17:06:45.233Z,18.00
2022-10-08T17:09:12.170Z,17.73
2022-10-08T17:11:39.170Z,18.88
2022-10-08T17:14:07.785Z,24.40
2022-10-08T17:16:36.009Z,20.85
2022-10-08T17:19:03.683Z,17.75
2022-10-08T17:21:31.531Z,13.55
2022-10-08T17:23:58.975Z,19.13
2022-10-08T17:26:27.666Z,16.77
2022-10-08T17:28:55.030Z,14.98
2022-10-08T17:31:29.028Z,15.00
2022-10-08T17:33:55.831Z,17.10
2022-10-08T17:36:26.392Z,15.45
2022-10-08T17:38:55.822Z,19.10
2022-10-08T17:41:25.303Z,25.27
2022-10-08T17:43:53.442Z,23.58
2022-10-08T17:46:23.139Z,23.50
2022-10-08T17:48:50.488Z,17.25
2022-10-08T17:51:23.203Z,15.82
2022-10-08T17:53:58.306Z,17.45
2022-10-08T17:56:25.808Z,14.95
2022-10-08T17:58:53.196Z,18.40
2022-10-08T18:01:23.116Z,16.10
2022-10-08T18:03:54.337Z,16.83
2022-10-08T18:06:22.069Z,17.77
2022-10-08T18:08:53.746Z,17.15
2022-10-08T18:11:20.475Z,17.23
2022-10-08T18:13:47.328Z,18.17
2022-10-08T18:16:16.139Z,15.75
2022-10-08T18:18:44.371Z,20.35
2022-10-08T18:21:12.746Z,16.10
2022-10-08T18:23:41.957Z,15.23
2022-10-08T18:26:22.012Z,22.95
2022-10-08T18:28:51.991Z,17.25
2022-10-08T18:31:20.416Z,20.58
2022-10-08T18:33:49.899Z,21.45
2022-10-08T18:36:28.136Z,20.45
2022-10-08T18:39:00.916Z,15.90
2022-10-08T18:41:30.758Z,17.60
2022-10-08T18:44:01.090Z,16.33
2022-10-08T18:46:28.487Z,15.65
2022-10-08T18:48:56.016Z,22.83
2022-10-08T18:51:25.487Z,18.35
2022-10-08T18:53:54.379Z,16.50
2022-10-08T18:56:28.916Z,21.23
2022-10-08T18:59:01.830Z,15.65
2022-10-08T19:01:31.441Z,14.65
2022-10-08T19:04:00.189Z,20.65
2022-10-08T19:06:30.242Z,20.35
2022-10-08T19:08:58.710Z,19.15
2022-10-08T19:11:30.374Z,26.67
2022-10-08T19:13:57.133Z,19.23
2022-10-08T19:16:24.558Z,21.75
2022-10-08T19:18:57.191Z,28.52
2022-10-08T19:21:25.767Z,23.08
2022-10-08T19:23:53.222Z,19.63
2022-10-08T19:26:20.182Z,22.45
2022-10-08T19:28:50.018Z,20.35
2022-10-08T19:31:23.157Z,32.75
2022-10-08T19:33:56.551Z,29.67
2022-10-08T19:36:26.057Z,24.15
2022-10-08T19:38:58.455Z,21.17
2022-10-08T19:41:26.838Z,18.52
2022-10-08T19:43:55.348Z,25.35
2022-10-08T19:46:22.313Z,24.20
2022-10-08T19:48:50.777Z,21.73
2022-10-08T19:51:18.752Z,21.73
2022-10-08T19:53:45.933Z,26.77
2022-10-08T19:56:13.914Z,38.15
2022-10-08T19:58:46.234Z,20.40
2022-10-08T20:01:17.467Z,26.75
2022-10-08T20:03:44.711Z,18.30
2022-10-08T20:06:14.112Z,23.65
2022-10-08T20:08:40.898Z,19.10
2022-10-08T20:11:10.082Z,24.20
2022-10-08T20:13:37.087Z,26.05
2022-10-08T20:16:06.566Z,23.70
2022-10-08T20:18:34.206Z,22.35
2022-10-08T20:21:07.084Z,24.83
2022-10-08T20:23:36.601Z,26.20
2022-10-08T20:26:17.026Z,30.58
2022-10-08T20:28:45.403Z,25.25
2022-10-08T20:31:15.448Z,21.38
2022-10-08T20:33:44.069Z,22.45
2022-10-08T20:36:16.915Z,20.42
2022-10-08T20:38:44.079Z,22.95
2022-10-08T20:41:11.094Z,24.27
2022-10-08T20:43:39.511Z,21.67
2022-10-08T20:46:16.325Z,23.95
2022-10-08T20:48:44.587Z,27.58
2022-10-08T20:51:14.018Z,22.30
2022-10-08T20:53:46.066Z,20.35
2022-10-08T20:56:13.761Z,21.25
2022-10-08T20:58:40.653Z,27.70
2022-10-08T21:01:23.612Z,22.17
2022-10-08T21:03:51.151Z,24.92
2022-10-08T21:06:23.439Z,28.77
2022-10-08T21:08:52.236Z,27.63
2022-10-08T21:11:22.367Z,27.17
2022-10-08T21:13:49.681Z,20.63
2022-10-08T21:16:50.174Z,21.83
2022-10-08T21:19:23.809Z,23.25
2022-10-08T21:21:51.750Z,20.15
2022-10-08T21:24:18.685Z,22.17
2022-10-08T21:26:45.588Z,20.48
2022-10-08T21:29:14.333Z,25.25
2022-10-08T21:31:41.949Z,26.23
2022-10-08T21:34:11.538Z,24.88
2022-10-08T21:36:39.840Z,20.83
2022-10-08T21:39:08.824Z,26.35
2022-10-08T21:41:37.430Z,20.55
2022-10-08T21:44:06.776Z,19.52
2022-10-08T21:46:35.918Z,26.27
2022-10-08T21:49:06.009Z,23.30
2022-10-08T21:51:33.576Z,24.38
2022-10-08T21:54:02.632Z,22.92
2022-10-08T21:56:32.130Z,23.88
2022-10-08T21:59:00.984Z,17.70
2022-10-08T22:01:27.763Z,22.02
2022-10-08T22:03:56.922Z,23.15
2022-10-08T22:06:24.635Z,26.15
2022-10-08T22:08:52.046Z,22.13
2022-10-08T22:11:19.304Z,27.15
2022-10-08T22:13:46.554Z,23.27
2022-10-08T22:16:15.086Z,17.42
2022-10-08T22:18:42.189Z,22.20
2022-10-08T22:21:17.672Z,22.55
2022-10-08T22:23:44.513Z,21.00
2022-10-08T22:26:17.080Z,17.67
2022-10-08T22:28:44.816Z,23.50
2022-10-08T22:31:13.704Z,20.75
2022-10-08T22:33:41.233Z,20.88
2022-10-08T22:36:17.496Z,19.20
2022-10-08T22:38:45.750Z,17.67
2022-10-08T22:41:21.185Z,20.25
2022-10-08T22:43:48.454Z,22.42
2022-10-08T22:46:21.260Z,23.70
2022-10-08T22:48:49.018Z,21.65
2022-10-08T22:51:21.993Z,14.93
2022-10-08T22:53:49.338Z,21.38
2022-10-08T22:56:22.067Z,19.88
2022-10-08T22:58:49.915Z,17.52
2022-10-08T23:01:22.335Z,23.13
2022-10-08T23:03:50.102Z,17.23
2022-10-08T23:06:19.675Z,18.83
2022-10-08T23:08:48.437Z,26.13
2022-10-08T23:11:16.433Z,23.98
2022-10-08T23:13:46.371Z,20.77
2022-10-08T23:16:15.483Z,19.42
2022-10-08T23:18:44.450Z,20.48
2022-10-08T23:21:15.667Z,22.55
2022-10-08T23:23:46.213Z,19.13
2022-10-08T23:26:14.056Z,22.58
2022-10-08T23:28:41.148Z,20.20
2022-10-08T23:31:10.320Z,25.33
2022-10-08T23:33:39.104Z,27.98
2022-10-08T23:36:07.633Z,15.98
2022-10-08T23:38:35.982Z,11.95
2022-10-08T23:41:05.425Z,13.50
2022-10-08T23:43:37.708Z,10.82
2022-10-08T23:46:06.945Z,11.68
2022-10-08T23:48:34.079Z,9.70
2022-10-08T23:51:01.549Z,11.45
2022-10-08T23:53:28.333Z,12.48
2022-10-08T23:55:55.142Z,12.02
2022-10-08T23:58:22.094Z,11.85
